TJSJ/SJU METAR and TAF weather

Enter ICAO airport designator
Station Type Date Time Source
TJSJ METAR 2022/06/30 12:56 UTC NOAA

TJSJ 301256Z 09014G22KT 9SM SCT025 SCT032 SCT090 29/23 A3006 RMK AO2 SLP179 VCSH N HZ ALQDS T02890233


Station Type Date Time Source
TJSJ Decoded METAR 2022/06/30 12:56 UTC NOAA

San Juan, Luis Munoz Marin International Airport, PR, United States (TJSJ) 18-27N 066-00W
Jun 30, 2022 - 08:56 AM EDT / 2022.06.30 1256 UTC
Wind: from the E (090 degrees) at 16 MPH (14 KT) gusting to 25 MPH (22 KT):0
Visibility: 9 mile(s):0
Sky conditions: partly cloudy
Temperature: 84.0 F (28.9 C)
Dew Point: 73.9 F (23.3 C)
Relative Humidity: 71%
Pressure (altimeter): 30.06 in. Hg (1017 hPa)
ob: TJSJ 301256Z 09014G22KT 9SM SCT025 SCT032 SCT090 29/23 A3006 RMK AO2 SLP179 VCSH N HZ ALQDS T02890233
cycle: 13

Station Type Date Time Source
TJSJ TAF 2022/06/30 12:54 UTC NOAA

TAF TJSJ 301140Z 3012/0112 09011KT P6SM VCSH FEW025 SCT035
FM301300 06018G25KT P6SM VCSH SCT030 SCT050
FM302300 08010KT P6SM SCT045

Example: see airport list